CheckWX is a tool to help pilots better visualize weather data.  It is not intended as a substitute for an official pre-flight weather briefing.

04:16:18 UTC

KORS METAR
Orcas Island Airport
Eastsound, Washington, USA
Current

21 mins ago

KORS 170355Z AUTO 14003KT 10SM FEW044 SCT060 BKN120 04/03 A3019 RMK AO2
Observed
Feb-17 @ 03:55 UTC
Wind
  • 140° at 3 KTS
Visibility
10 SM
Flight Rules
VFR
Cloud Levels
  • Few at 4,400' AGL
  • Scattered at 6,000' AGL
  • Broken at 12,000' AGL
Temperature
C / 39°F
Dewpoint
C / 37°F
Humidity
93%
Altimeter
30.19" Hg
Pressure
1022.32 hPa
Previous

41 mins ago

KORS 170335Z AUTO 17004KT 10SM FEW048 SCT060 BKN120 04/03 A3018 RMK AO2
Observed
Feb-17 @ 03:35 UTC
Wind
  • 170° at 4 KTS
Visibility
10 SM
Flight Rules
VFR
Cloud Levels
  • Few at 4,800' AGL
  • Scattered at 6,000' AGL
  • Broken at 12,000' AGL
Temperature
C / 39°F
Dewpoint
C / 37°F
Humidity
93%
Altimeter
30.18" Hg
Pressure
1022.02 hPa
Previous

1 hour ago

KORS 170315Z AUTO 20004KT 10SM FEW048 SCT060 04/03 A3018 RMK AO2
Observed
Feb-17 @ 03:15 UTC
Wind
  • 200° at 4 KTS
Visibility
10 SM
Flight Rules
VFR
Cloud Levels
  • Few at 4,800' AGL
  • Scattered at 6,000' AGL
Temperature
C / 39°F
Dewpoint
C / 37°F
Humidity
93%
Altimeter
30.18" Hg
Pressure
1022.02 hPa